Audubon, Minnesota
Current Conditions -  °F | °C
As of 5:55 AM on Monday 24 Nov 2014 (Local Time) from KDTL Reporting Station
Light Snow Light Snow  
Wind Chill: -4°   Ceiling: 600
Heat Index: 12°   Visibility: 4mi
Dew Point: 10°   Wind: 16mph
Humidity: 92%   Direction: 330°NNW
Pressure: 29.53"   Gusts: 32mph
Location:  46.86°N, 95.98°W
Report Text: KDTL 241155Z AUTO 33014G28KT 4SM -SN BKN006 BKN011 OVC018 M11/M12 A2953 RMK AO2
Loading
Personal Weather Stations






























Interactive Weather Map New forecast layout! Learn more

10-Day Weather Forecast

Advertisements
Track Severe Weather on mobile